sensor_id;sensor_type;location;lat;lon;timestamp;temperature;humidity
40255;DHT22;25973;52.368;4.940;2023-03-23T00:00:44;12.90;99.90
40255;DHT22;25973;52.368;4.940;2023-03-23T00:03:09;12.90;99.90
40255;DHT22;25973;52.368;4.940;2023-03-23T00:05:35;12.90;99.90
40255;DHT22;25973;52.368;4.940;2023-03-23T00:08:02;12.90;99.90
40255;DHT22;25973;52.368;4.940;2023-03-23T00:10:28;12.90;99.90
40255;DHT22;25973;52.368;4.940;2023-03-23T00:12:58;12.90;99.90
40255;DHT22;25973;52.368;4.940;2023-03-23T00:15:28;12.90;99.90
40255;DHT22;25973;52.368;4.940;2023-03-23T00:17:58;12.90;99.90
40255;DHT22;25973;52.368;4.940;2023-03-23T00:20:28;12.90;99.90
40255;DHT22;25973;52.368;4.940;2023-03-23T00:23:06;12.90;99.90
40255;DHT22;25973;52.368;4.940;2023-03-23T00:25:32;12.90;99.90
40255;DHT22;25973;52.368;4.940;2023-03-23T00:27:57;13.00;99.90
40255;DHT22;25973;52.368;4.940;2023-03-23T00:30:23;13.00;99.90
40255;DHT22;25973;52.368;4.940;2023-03-23T00:32:49;13.00;99.90
40255;DHT22;25973;52.368;4.940;2023-03-23T00:35:16;13.00;99.90
40255;DHT22;25973;52.368;4.940;2023-03-23T00:37:43;13.00;99.90
40255;DHT22;25973;52.368;4.940;2023-03-23T00:40:09;13.00;99.90
40255;DHT22;25973;52.368;4.940;2023-03-23T00:42:35;13.00;99.90
40255;DHT22;25973;52.368;4.940;2023-03-23T00:45:02;13.00;99.90
40255;DHT22;25973;52.368;4.940;2023-03-23T00:47:28;13.00;99.90
40255;DHT22;25973;52.368;4.940;2023-03-23T00:49:53;13.00;99.90
40255;DHT22;25973;52.368;4.940;2023-03-23T00:52:22;13.00;99.90
40255;DHT22;25973;52.368;4.940;2023-03-23T00:54:47;13.00;99.90
40255;DHT22;25973;52.368;4.940;2023-03-23T00:57:13;13.00;99.90
40255;DHT22;25973;52.368;4.940;2023-03-23T00:59:39;13.00;99.90
40255;DHT22;25973;52.368;4.940;2023-03-23T01:02:05;13.00;99.90
40255;DHT22;25973;52.368;4.940;2023-03-23T01:04:30;13.00;99.90
40255;DHT22;25973;52.368;4.940;2023-03-23T01:06:57;13.00;99.90
40255;DHT22;25973;52.368;4.940;2023-03-23T01:09:23;13.00;99.90
40255;DHT22;25973;52.368;4.940;2023-03-23T01:11:50;13.00;99.90
40255;DHT22;25973;52.368;4.940;2023-03-23T01:14:17;13.00;99.90
40255;DHT22;25973;52.368;4.940;2023-03-23T01:16:43;13.00;99.90
40255;DHT22;25973;52.368;4.940;2023-03-23T01:19:09;13.00;99.90
40255;DHT22;25973;52.368;4.940;2023-03-23T01:21:35;13.00;99.90
40255;DHT22;25973;52.368;4.940;2023-03-23T01:24:01;12.90;99.90
40255;DHT22;25973;52.368;4.940;2023-03-23T01:26:28;13.00;99.90
40255;DHT22;25973;52.368;4.940;2023-03-23T01:28:54;12.90;99.90
40255;DHT22;25973;52.368;4.940;2023-03-23T01:31:23;12.90;99.90
40255;DHT22;25973;52.368;4.940;2023-03-23T01:33:50;12.90;99.90
40255;DHT22;25973;52.368;4.940;2023-03-23T01:36:22;12.90;99.90
40255;DHT22;25973;52.368;4.940;2023-03-23T01:38:49;13.00;99.90
40255;DHT22;25973;52.368;4.940;2023-03-23T01:41:17;13.00;99.90
40255;DHT22;25973;52.368;4.940;2023-03-23T01:44:05;13.00;99.90
40255;DHT22;25973;52.368;4.940;2023-03-23T01:46:35;13.00;99.90
40255;DHT22;25973;52.368;4.940;2023-03-23T01:49:23;13.00;99.90
40255;DHT22;25973;52.368;4.940;2023-03-23T01:51:54;13.00;99.90
40255;DHT22;25973;52.368;4.940;2023-03-23T01:54:22;12.90;99.90
40255;DHT22;25973;52.368;4.940;2023-03-23T01:57:01;12.90;99.90
40255;DHT22;25973;52.368;4.940;2023-03-23T01:59:28;13.00;99.90
40255;DHT22;25973;52.368;4.940;2023-03-23T02:01:55;12.90;99.90
40255;DHT22;25973;52.368;4.940;2023-03-23T02:04:21;12.90;99.90
40255;DHT22;25973;52.368;4.940;2023-03-23T02:06:47;12.90;99.90
40255;DHT22;25973;52.368;4.940;2023-03-23T02:09:14;12.90;99.90
40255;DHT22;25973;52.368;4.940;2023-03-23T02:11:42;12.90;99.90
40255;DHT22;25973;52.368;4.940;2023-03-23T02:14:08;12.90;99.90
40255;DHT22;25973;52.368;4.940;2023-03-23T02:16:55;12.90;99.90
40255;DHT22;25973;52.368;4.940;2023-03-23T02:23:07;12.90;99.90
40255;DHT22;25973;52.368;4.940;2023-03-23T02:42:05;12.90;99.90
40255;DHT22;25973;52.368;4.940;2023-03-23T02:44:34;12.90;99.90
40255;DHT22;25973;52.368;4.940;2023-03-23T02:47:04;12.90;99.90
40255;DHT22;25973;52.368;4.940;2023-03-23T02:49:33;12.90;99.90
40255;DHT22;25973;52.368;4.940;2023-03-23T02:52:08;12.80;99.90
40255;DHT22;25973;52.368;4.940;2023-03-23T02:54:35;12.90;99.90
40255;DHT22;25973;52.368;4.940;2023-03-23T02:57:01;12.80;99.90
40255;DHT22;25973;52.368;4.940;2023-03-23T02:59:28;12.90;99.90
40255;DHT22;25973;52.368;4.940;2023-03-23T03:02:13;12.90;99.90
40255;DHT22;25973;52.368;4.940;2023-03-23T03:04:42;12.90;99.90
40255;DHT22;25973;52.368;4.940;2023-03-23T03:07:23;12.80;99.90
40255;DHT22;25973;52.368;4.940;2023-03-23T03:09:59;12.90;99.90
40255;DHT22;25973;52.368;4.940;2023-03-23T03:15:02;12.80;99.90
40255;DHT22;25973;52.368;4.940;2023-03-23T03:17:35;12.80;99.90
40255;DHT22;25973;52.368;4.940;2023-03-23T03:20:04;12.90;99.90
40255;DHT22;25973;52.368;4.940;2023-03-23T03:22:38;12.90;99.90
40255;DHT22;25973;52.368;4.940;2023-03-23T03:25:08;12.90;99.90
40255;DHT22;25973;52.368;4.940;2023-03-23T03:27:34;12.90;99.90
40255;DHT22;25973;52.368;4.940;2023-03-23T03:30:03;12.80;99.90
40255;DHT22;25973;52.368;4.940;2023-03-23T03:32:38;12.80;99.90
40255;DHT22;25973;52.368;4.940;2023-03-23T03:35:06;12.70;99.90
40255;DHT22;25973;52.368;4.940;2023-03-23T03:37:35;12.70;99.90
40255;DHT22;25973;52.368;4.940;2023-03-23T03:40:04;12.70;99.90
40255;DHT22;25973;52.368;4.940;2023-03-23T03:42:37;12.70;99.90
40255;DHT22;25973;52.368;4.940;2023-03-23T03:45:03;12.60;99.90
40255;DHT22;25973;52.368;4.940;2023-03-23T03:47:28;12.50;99.90
40255;DHT22;25973;52.368;4.940;2023-03-23T03:49:54;12.50;99.90
40255;DHT22;25973;52.368;4.940;2023-03-23T03:52:19;12.40;99.90
40255;DHT22;25973;52.368;4.940;2023-03-23T03:54:45;12.40;99.90
40255;DHT22;25973;52.368;4.940;2023-03-23T03:57:11;12.40;99.90
40255;DHT22;25973;52.368;4.940;2023-03-23T03:59:37;12.40;99.90
40255;DHT22;25973;52.368;4.940;2023-03-23T04:02:03;12.40;99.90
40255;DHT22;25973;52.368;4.940;2023-03-23T04:04:29;12.40;99.90
40255;DHT22;25973;52.368;4.940;2023-03-23T04:06:55;12.40;99.90
40255;DHT22;25973;52.368;4.940;2023-03-23T04:09:20;12.30;99.90
40255;DHT22;25973;52.368;4.940;2023-03-23T04:11:46;12.40;99.90
40255;DHT22;25973;52.368;4.940;2023-03-23T04:14:12;12.40;99.90
40255;DHT22;25973;52.368;4.940;2023-03-23T04:16:37;12.40;99.90
40255;DHT22;25973;52.368;4.940;2023-03-23T04:19:03;12.40;99.90
40255;DHT22;25973;52.368;4.940;2023-03-23T04:21:29;12.40;99.90
40255;DHT22;25973;52.368;4.940;2023-03-23T04:23:58;12.40;99.90
40255;DHT22;25973;52.368;4.940;2023-03-23T04:26:28;12.50;99.90
40255;DHT22;25973;52.368;4.940;2023-03-23T04:28:56;12.50;99.90
40255;DHT22;25973;52.368;4.940;2023-03-23T04:31:24;12.40;99.90
40255;DHT22;25973;52.368;4.940;2023-03-23T04:33:50;12.30;99.90
40255;DHT22;25973;52.368;4.940;2023-03-23T04:36:19;12.30;99.90
40255;DHT22;25973;52.368;4.940;2023-03-23T04:38:45;12.30;99.90
40255;DHT22;25973;52.368;4.940;2023-03-23T04:41:11;12.20;99.90
40255;DHT22;25973;52.368;4.940;2023-03-23T04:43:36;12.20;99.90
40255;DHT22;25973;52.368;4.940;2023-03-23T04:46:07;12.20;99.90
40255;DHT22;25973;52.368;4.940;2023-03-23T04:48:36;12.20;99.90
40255;DHT22;25973;52.368;4.940;2023-03-23T04:51:05;12.10;99.90
40255;DHT22;25973;52.368;4.940;2023-03-23T04:53:31;12.10;99.90
40255;DHT22;25973;52.368;4.940;2023-03-23T04:55:56;12.10;99.90
40255;DHT22;25973;52.368;4.940;2023-03-23T04:58:22;12.00;99.90
40255;DHT22;25973;52.368;4.940;2023-03-23T05:00:50;12.00;99.90
40255;DHT22;25973;52.368;4.940;2023-03-23T05:03:20;12.00;99.90
40255;DHT22;25973;52.368;4.940;2023-03-23T05:05:46;12.00;99.90
40255;DHT22;25973;52.368;4.940;2023-03-23T05:08:23;12.00;99.90
40255;DHT22;25973;52.368;4.940;2023-03-23T05:10:54;12.00;99.90
40255;DHT22;25973;52.368;4.940;2023-03-23T05:13:21;12.00;99.90
40255;DHT22;25973;52.368;4.940;2023-03-23T05:15:47;12.00;99.90
40255;DHT22;25973;52.368;4.940;2023-03-23T05:18:13;12.00;99.90
40255;DHT22;25973;52.368;4.940;2023-03-23T05:20:40;12.00;99.90
40255;DHT22;25973;52.368;4.940;2023-03-23T05:23:07;12.00;99.90
40255;DHT22;25973;52.368;4.940;2023-03-23T05:25:33;12.00;99.90
40255;DHT22;25973;52.368;4.940;2023-03-23T05:28:06;12.10;99.90
40255;DHT22;25973;52.368;4.940;2023-03-23T05:30:31;12.10;99.90
40255;DHT22;25973;52.368;4.940;2023-03-23T05:32:57;12.10;99.90
40255;DHT22;25973;52.368;4.940;2023-03-23T05:35:22;12.10;99.90
40255;DHT22;25973;52.368;4.940;2023-03-23T05:37:48;12.10;99.90
40255;DHT22;25973;52.368;4.940;2023-03-23T05:40:14;12.10;99.90
40255;DHT22;25973;52.368;4.940;2023-03-23T05:42:40;12.10;99.90
40255;DHT22;25973;52.368;4.940;2023-03-23T05:45:11;12.10;99.90
40255;DHT22;25973;52.368;4.940;2023-03-23T05:47:38;12.10;99.90
40255;DHT22;25973;52.368;4.940;2023-03-23T05:50:05;12.10;99.90
40255;DHT22;25973;52.368;4.940;2023-03-23T05:52:32;12.10;99.90
40255;DHT22;25973;52.368;4.940;2023-03-23T05:54:58;12.10;99.90
40255;DHT22;25973;52.368;4.940;2023-03-23T05:57:24;12.10;99.90
40255;DHT22;25973;52.368;4.940;2023-03-23T05:59:50;12.20;99.90
40255;DHT22;25973;52.368;4.940;2023-03-23T06:02:15;12.10;99.90
40255;DHT22;25973;52.368;4.940;2023-03-23T06:04:41;12.20;99.90
40255;DHT22;25973;52.368;4.940;2023-03-23T06:07:08;12.10;99.90
40255;DHT22;25973;52.368;4.940;2023-03-23T06:09:38;12.10;99.90
40255;DHT22;25973;52.368;4.940;2023-03-23T06:12:03;12.10;99.90
40255;DHT22;25973;52.368;4.940;2023-03-23T06:14:30;12.10;99.90
40255;DHT22;25973;52.368;4.940;2023-03-23T06:16:56;12.10;99.90
40255;DHT22;25973;52.368;4.940;2023-03-23T06:19:22;12.10;99.90
40255;DHT22;25973;52.368;4.940;2023-03-23T06:21:48;12.10;99.90
40255;DHT22;25973;52.368;4.940;2023-03-23T06:24:14;12.20;99.90
40255;DHT22;25973;52.368;4.940;2023-03-23T06:26:40;12.20;99.90
40255;DHT22;25973;52.368;4.940;2023-03-23T06:29:10;12.20;99.90
40255;DHT22;25973;52.368;4.940;2023-03-23T06:31:49;12.30;99.90
40255;DHT22;25973;52.368;4.940;2023-03-23T06:34:14;12.20;99.90
40255;DHT22;25973;52.368;4.940;2023-03-23T06:36:40;12.30;99.90
40255;DHT22;25973;52.368;4.940;2023-03-23T06:39:08;12.40;99.90
40255;DHT22;25973;52.368;4.940;2023-03-23T06:41:34;12.40;99.90
40255;DHT22;25973;52.368;4.940;2023-03-23T06:44:01;12.30;99.90
40255;DHT22;25973;52.368;4.940;2023-03-23T06:46:27;12.40;99.90
40255;DHT22;25973;52.368;4.940;2023-03-23T06:48:53;12.40;99.90
40255;DHT22;25973;52.368;4.940;2023-03-23T06:51:20;12.50;99.90
40255;DHT22;25973;52.368;4.940;2023-03-23T06:53:45;12.50;99.90
40255;DHT22;25973;52.368;4.940;2023-03-23T06:56:11;12.50;99.90
40255;DHT22;25973;52.368;4.940;2023-03-23T06:58:38;12.50;99.90
40255;DHT22;25973;52.368;4.940;2023-03-23T07:01:04;12.50;99.90
40255;DHT22;25973;52.368;4.940;2023-03-23T07:03:31;12.50;99.90
40255;DHT22;25973;52.368;4.940;2023-03-23T07:05:57;12.50;99.90
40255;DHT22;25973;52.368;4.940;2023-03-23T07:08:23;12.60;99.90
40255;DHT22;25973;52.368;4.940;2023-03-23T07:10:54;12.50;99.90
40255;DHT22;25973;52.368;4.940;2023-03-23T07:13:20;12.50;99.90
40255;DHT22;25973;52.368;4.940;2023-03-23T07:15:46;12.50;99.90
40255;DHT22;25973;52.368;4.940;2023-03-23T07:18:12;12.50;99.90
40255;DHT22;25973;52.368;4.940;2023-03-23T07:20:38;12.50;99.90
40255;DHT22;25973;52.368;4.940;2023-03-23T07:23:03;12.40;99.90
40255;DHT22;25973;52.368;4.940;2023-03-23T07:25:33;12.50;99.90
40255;DHT22;25973;52.368;4.940;2023-03-23T07:28:00;12.50;99.90
40255;DHT22;25973;52.368;4.940;2023-03-23T07:30:26;12.60;99.90
40255;DHT22;25973;52.368;4.940;2023-03-23T07:32:52;12.60;99.90
40255;DHT22;25973;52.368;4.940;2023-03-23T07:35:18;12.50;99.90
40255;DHT22;25973;52.368;4.940;2023-03-23T07:37:44;12.50;99.90
40255;DHT22;25973;52.368;4.940;2023-03-23T07:40:11;12.50;99.90
40255;DHT22;25973;52.368;4.940;2023-03-23T07:42:44;12.50;99.90
40255;DHT22;25973;52.368;4.940;2023-03-23T07:45:11;12.50;99.90
40255;DHT22;25973;52.368;4.940;2023-03-23T07:47:38;12.50;99.90
40255;DHT22;25973;52.368;4.940;2023-03-23T07:50:04;12.50;99.90
40255;DHT22;25973;52.368;4.940;2023-03-23T07:52:29;12.50;99.90
40255;DHT22;25973;52.368;4.940;2023-03-23T07:54:56;12.60;99.90
40255;DHT22;25973;52.368;4.940;2023-03-23T07:57:22;12.70;99.90
40255;DHT22;25973;52.368;4.940;2023-03-23T07:59:48;12.70;99.90
40255;DHT22;25973;52.368;4.940;2023-03-23T08:02:13;12.80;99.90
40255;DHT22;25973;52.368;4.940;2023-03-23T08:04:40;13.10;99.90
40255;DHT22;25973;52.368;4.940;2023-03-23T08:07:05;13.40;99.90
40255;DHT22;25973;52.368;4.940;2023-03-23T08:09:31;13.70;99.90
40255;DHT22;25973;52.368;4.940;2023-03-23T08:11:57;14.10;99.90
40255;DHT22;25973;52.368;4.940;2023-03-23T08:14:23;14.50;99.90
40255;DHT22;25973;52.368;4.940;2023-03-23T08:16:51;15.00;99.90
40255;DHT22;25973;52.368;4.940;2023-03-23T08:19:17;15.50;99.90
40255;DHT22;25973;52.368;4.940;2023-03-23T08:21:42;15.80;99.90
40255;DHT22;25973;52.368;4.940;2023-03-23T08:24:08;16.00;99.90
40255;DHT22;25973;52.368;4.940;2023-03-23T08:26:34;16.20;99.90
40255;DHT22;25973;52.368;4.940;2023-03-23T08:28:59;16.30;99.90
40255;DHT22;25973;52.368;4.940;2023-03-23T08:31:25;16.60;99.90
40255;DHT22;25973;52.368;4.940;2023-03-23T08:33:52;16.80;99.90
40255;DHT22;25973;52.368;4.940;2023-03-23T08:36:18;17.10;99.90
40255;DHT22;25973;52.368;4.940;2023-03-23T08:38:44;17.30;99.90
40255;DHT22;25973;52.368;4.940;2023-03-23T08:41:10;17.50;99.90
40255;DHT22;25973;52.368;4.940;2023-03-23T08:43:36;17.60;99.90
40255;DHT22;25973;52.368;4.940;2023-03-23T08:46:03;17.70;99.90
40255;DHT22;25973;52.368;4.940;2023-03-23T08:48:34;17.80;99.90
40255;DHT22;25973;52.368;4.940;2023-03-23T08:51:01;18.10;99.90
40255;DHT22;25973;52.368;4.940;2023-03-23T08:53:26;18.20;99.90
40255;DHT22;25973;52.368;4.940;2023-03-23T08:55:55;18.20;99.90
40255;DHT22;25973;52.368;4.940;2023-03-23T08:58:21;18.10;99.90
40255;DHT22;25973;52.368;4.940;2023-03-23T09:00:48;18.00;99.90
40255;DHT22;25973;52.368;4.940;2023-03-23T09:03:13;17.80;99.90
40255;DHT22;25973;52.368;4.940;2023-03-23T09:05:40;17.70;99.90
40255;DHT22;25973;52.368;4.940;2023-03-23T09:08:11;17.60;99.90
40255;DHT22;25973;52.368;4.940;2023-03-23T09:10:37;17.50;99.90
40255;DHT22;25973;52.368;4.940;2023-03-23T09:13:04;17.30;99.90
40255;DHT22;25973;52.368;4.940;2023-03-23T09:15:30;17.30;99.90
40255;DHT22;25973;52.368;4.940;2023-03-23T09:17:56;17.20;99.90
40255;DHT22;25973;52.368;4.940;2023-03-23T09:20:24;17.00;99.90
40255;DHT22;25973;52.368;4.940;2023-03-23T09:22:52;16.60;99.90
40255;DHT22;25973;52.368;4.940;2023-03-23T09:25:21;16.40;99.90
40255;DHT22;25973;52.368;4.940;2023-03-23T09:27:49;16.10;99.90
40255;DHT22;25973;52.368;4.940;2023-03-23T09:30:19;15.90;99.90
40255;DHT22;25973;52.368;4.940;2023-03-23T09:32:46;15.70;99.90
40255;DHT22;25973;52.368;4.940;2023-03-23T09:35:13;15.60;99.90
40255;DHT22;25973;52.368;4.940;2023-03-23T09:37:40;15.40;99.90
40255;DHT22;25973;52.368;4.940;2023-03-23T09:40:14;15.40;99.90
40255;DHT22;25973;52.368;4.940;2023-03-23T09:48:54;15.30;99.90
40255;DHT22;25973;52.368;4.940;2023-03-23T09:51:51;15.30;99.90
40255;DHT22;25973;52.368;4.940;2023-03-23T09:54:31;15.40;99.90
40255;DHT22;25973;52.368;4.940;2023-03-23T09:57:00;15.70;99.90
40255;DHT22;25973;52.368;4.940;2023-03-23T10:00:15;16.10;99.90
40255;DHT22;25973;52.368;4.940;2023-03-23T10:02:30;16.30;99.90
40255;DHT22;25973;52.368;4.940;2023-03-23T10:05:29;16.60;99.90
40255;DHT22;25973;52.368;4.940;2023-03-23T10:07:53;16.60;99.90
40255;DHT22;25973;52.368;4.940;2023-03-23T10:10:20;16.50;99.90
40255;DHT22;25973;52.368;4.940;2023-03-23T10:12:57;16.30;99.90
40255;DHT22;25973;52.368;4.940;2023-03-23T10:15:29;16.30;99.90
40255;DHT22;25973;52.368;4.940;2023-03-23T10:18:10;16.30;99.90
40255;DHT22;25973;52.368;4.940;2023-03-23T10:20:58;16.40;99.90
40255;DHT22;25973;52.368;4.940;2023-03-23T10:23:58;16.80;99.90
40255;DHT22;25973;52.368;4.940;2023-03-23T10:28:54;17.60;99.90
40255;DHT22;25973;52.368;4.940;2023-03-23T10:31:27;17.60;99.90
40255;DHT22;25973;52.368;4.940;2023-03-23T10:33:57;17.60;99.90
40255;DHT22;25973;52.368;4.940;2023-03-23T10:36:28;17.60;99.90
40255;DHT22;25973;52.368;4.940;2023-03-23T10:39:19;17.60;99.90
40255;DHT22;25973;52.368;4.940;2023-03-23T10:41:46;17.50;99.90
40255;DHT22;25973;52.368;4.940;2023-03-23T10:44:18;17.60;99.90
40255;DHT22;25973;52.368;4.940;2023-03-23T10:47:00;18.00;99.90
40255;DHT22;25973;52.368;4.940;2023-03-23T10:49:30;18.60;99.90
40255;DHT22;25973;52.368;4.940;2023-03-23T10:57:32;19.40;99.90
40255;DHT22;25973;52.368;4.940;2023-03-23T11:00:18;19.50;99.90
40255;DHT22;25973;52.368;4.940;2023-03-23T11:03:04;19.70;99.90
40255;DHT22;25973;52.368;4.940;2023-03-23T11:05:48;20.10;99.90
40255;DHT22;25973;52.368;4.940;2023-03-23T11:08:29;20.50;99.90
40255;DHT22;25973;52.368;4.940;2023-03-23T11:10:59;20.80;99.90
40255;DHT22;25973;52.368;4.940;2023-03-23T11:13:32;20.60;99.90
40255;DHT22;25973;52.368;4.940;2023-03-23T11:15:59;20.90;99.90
40255;DHT22;25973;52.368;4.940;2023-03-23T11:18:43;21.10;99.60
40255;DHT22;25973;52.368;4.940;2023-03-23T11:21:11;20.60;99.90
40255;DHT22;25973;52.368;4.940;2023-03-23T11:23:40;20.00;99.90
40255;DHT22;25973;52.368;4.940;2023-03-23T11:26:27;19.50;99.90
40255;DHT22;25973;52.368;4.940;2023-03-23T11:31:52;18.40;99.90
40255;DHT22;25973;52.368;4.940;2023-03-23T11:34:22;17.90;99.90
40255;DHT22;25973;52.368;4.940;2023-03-23T11:36:57;17.60;99.90
40255;DHT22;25973;52.368;4.940;2023-03-23T11:39:29;17.30;99.90
40255;DHT22;25973;52.368;4.940;2023-03-23T11:41:58;17.10;99.90
40255;DHT22;25973;52.368;4.940;2023-03-23T11:44:31;17.00;99.90
40255;DHT22;25973;52.368;4.940;2023-03-23T11:50:08;16.80;99.90
40255;DHT22;25973;52.368;4.940;2023-03-23T11:52:44;16.80;99.90
40255;DHT22;25973;52.368;4.940;2023-03-23T11:57:40;16.80;99.90
40255;DHT22;25973;52.368;4.940;2023-03-23T12:00:14;16.80;99.90
40255;DHT22;25973;52.368;4.940;2023-03-23T12:06:04;17.00;99.90
40255;DHT22;25973;52.368;4.940;2023-03-23T12:11:58;17.00;99.90
40255;DHT22;25973;52.368;4.940;2023-03-23T12:14:35;17.00;99.90
40255;DHT22;25973;52.368;4.940;2023-03-23T12:22:37;16.80;99.90
40255;DHT22;25973;52.368;4.940;2023-03-23T12:25:12;16.80;99.90
40255;DHT22;25973;52.368;4.940;2023-03-23T12:27:55;16.80;99.90
40255;DHT22;25973;52.368;4.940;2023-03-23T12:30:29;16.80;99.90
40255;DHT22;25973;52.368;4.940;2023-03-23T12:35:59;16.70;99.90
40255;DHT22;25973;52.368;4.940;2023-03-23T12:38:41;16.70;99.90
40255;DHT22;25973;52.368;4.940;2023-03-23T12:43:51;16.60;99.90
40255;DHT22;25973;52.368;4.940;2023-03-23T12:46:40;16.70;99.90
40255;DHT22;25973;52.368;4.940;2023-03-23T12:49:17;16.70;99.90
40255;DHT22;25973;52.368;4.940;2023-03-23T12:51:59;16.70;99.90
40255;DHT22;25973;52.368;4.940;2023-03-23T12:54:36;16.60;99.90
40255;DHT22;25973;52.368;4.940;2023-03-23T13:00:05;16.60;99.90
40255;DHT22;25973;52.368;4.940;2023-03-23T13:05:44;16.40;99.90
40255;DHT22;25973;52.368;4.940;2023-03-23T13:08:21;16.40;99.90
40255;DHT22;25973;52.368;4.940;2023-03-23T13:10:50;16.30;99.90
40255;DHT22;25973;52.368;4.940;2023-03-23T13:13:23;16.20;99.90
40255;DHT22;25973;52.368;4.940;2023-03-23T13:16:00;16.10;99.90
40255;DHT22;25973;52.368;4.940;2023-03-23T13:21:21;15.90;99.90
40255;DHT22;25973;52.368;4.940;2023-03-23T13:23:55;15.80;99.90
40255;DHT22;25973;52.368;4.940;2023-03-23T13:26:23;15.70;99.90
40255;DHT22;25973;52.368;4.940;2023-03-23T13:31:27;15.50;99.90
40255;DHT22;25973;52.368;4.940;2023-03-23T13:34:02;15.60;99.90
40255;DHT22;25973;52.368;4.940;2023-03-23T13:38:57;15.60;99.90
40255;DHT22;25973;52.368;4.940;2023-03-23T13:41:23;15.60;99.90
40255;DHT22;25973;52.368;4.940;2023-03-23T13:43:48;15.60;99.90
40255;DHT22;25973;52.368;4.940;2023-03-23T13:48:46;15.70;99.90
40255;DHT22;25973;52.368;4.940;2023-03-23T13:56:58;15.60;99.90
40255;DHT22;25973;52.368;4.940;2023-03-23T14:01:53;15.60;99.90
40255;DHT22;25973;52.368;4.940;2023-03-23T14:04:20;15.50;99.90
40255;DHT22;25973;52.368;4.940;2023-03-23T14:06:48;15.50;99.90
40255;DHT22;25973;52.368;4.940;2023-03-23T14:09:41;15.60;99.90
40255;DHT22;25973;52.368;4.940;2023-03-23T14:12:23;15.60;99.90
40255;DHT22;25973;52.368;4.940;2023-03-23T14:14:56;15.60;99.90
40255;DHT22;25973;52.368;4.940;2023-03-23T14:17:33;15.60;99.90
40255;DHT22;25973;52.368;4.940;2023-03-23T14:20:01;15.60;99.90
40255;DHT22;25973;52.368;4.940;2023-03-23T14:22:36;15.60;99.90
40255;DHT22;25973;52.368;4.940;2023-03-23T14:25:13;15.70;99.90
40255;DHT22;25973;52.368;4.940;2023-03-23T14:27:40;15.70;99.90
40255;DHT22;25973;52.368;4.940;2023-03-23T14:30:15;15.80;99.90
40255;DHT22;25973;52.368;4.940;2023-03-23T14:32:42;15.80;99.90
40255;DHT22;25973;52.368;4.940;2023-03-23T14:35:35;15.80;99.90
40255;DHT22;25973;52.368;4.940;2023-03-23T14:38:01;15.80;99.90
40255;DHT22;25973;52.368;4.940;2023-03-23T14:40:28;15.70;99.90
40255;DHT22;25973;52.368;4.940;2023-03-23T14:42:54;15.70;99.90
40255;DHT22;25973;52.368;4.940;2023-03-23T14:45:22;15.70;99.90
40255;DHT22;25973;52.368;4.940;2023-03-23T14:47:54;15.70;99.90
40255;DHT22;25973;52.368;4.940;2023-03-23T14:50:38;15.70;99.90
40255;DHT22;25973;52.368;4.940;2023-03-23T14:55:50;15.70;99.90
40255;DHT22;25973;52.368;4.940;2023-03-23T14:58:18;15.70;99.90
40255;DHT22;25973;52.368;4.940;2023-03-23T15:01:06;15.70;99.90
40255;DHT22;25973;52.368;4.940;2023-03-23T15:04:08;15.80;99.90
40255;DHT22;25973;52.368;4.940;2023-03-23T15:06:36;15.70;99.90
40255;DHT22;25973;52.368;4.940;2023-03-23T15:09:07;15.80;99.90
40255;DHT22;25973;52.368;4.940;2023-03-23T15:11:36;15.80;99.90
40255;DHT22;25973;52.368;4.940;2023-03-23T15:14:16;15.80;99.90
40255;DHT22;25973;52.368;4.940;2023-03-23T15:16:47;15.80;99.90
40255;DHT22;25973;52.368;4.940;2023-03-23T15:19:22;15.80;99.90
40255;DHT22;25973;52.368;4.940;2023-03-23T15:24:31;15.70;99.90
40255;DHT22;25973;52.368;4.940;2023-03-23T15:27:13;15.70;99.90
40255;DHT22;25973;52.368;4.940;2023-03-23T15:29:51;15.70;99.90
40255;DHT22;25973;52.368;4.940;2023-03-23T15:32:30;15.70;99.90
40255;DHT22;25973;52.368;4.940;2023-03-23T15:34:57;15.70;99.90
40255;DHT22;25973;52.368;4.940;2023-03-23T15:37:30;15.70;99.90
40255;DHT22;25973;52.368;4.940;2023-03-23T15:39:58;15.70;99.90
40255;DHT22;25973;52.368;4.940;2023-03-23T15:42:29;15.80;99.90
40255;DHT22;25973;52.368;4.940;2023-03-23T15:47:43;15.70;99.90
40255;DHT22;25973;52.368;4.940;2023-03-23T15:50:19;15.70;99.90
40255;DHT22;25973;52.368;4.940;2023-03-23T15:52:46;15.70;99.90
40255;DHT22;25973;52.368;4.940;2023-03-23T15:57:52;15.70;99.90
40255;DHT22;25973;52.368;4.940;2023-03-23T16:00:19;15.80;99.90
40255;DHT22;25973;52.368;4.940;2023-03-23T16:02:46;15.80;99.90
40255;DHT22;25973;52.368;4.940;2023-03-23T16:05:13;15.80;99.90
40255;DHT22;25973;52.368;4.940;2023-03-23T16:07:39;15.90;99.90
40255;DHT22;25973;52.368;4.940;2023-03-23T16:10:07;15.90;99.90
40255;DHT22;25973;52.368;4.940;2023-03-23T16:12:38;16.00;99.90
40255;DHT22;25973;52.368;4.940;2023-03-23T16:15:05;16.00;99.90
40255;DHT22;25973;52.368;4.940;2023-03-23T16:17:30;16.00;99.90
40255;DHT22;25973;52.368;4.940;2023-03-23T16:19:57;16.00;99.90
40255;DHT22;25973;52.368;4.940;2023-03-23T16:22:23;15.90;99.90
40255;DHT22;25973;52.368;4.940;2023-03-23T16:24:48;15.90;99.90
40255;DHT22;25973;52.368;4.940;2023-03-23T16:27:14;15.80;99.90
40255;DHT22;25973;52.368;4.940;2023-03-23T16:29:39;15.80;99.90
40255;DHT22;25973;52.368;4.940;2023-03-23T16:32:05;15.70;99.90
40255;DHT22;25973;52.368;4.940;2023-03-23T16:34:31;15.70;99.90
40255;DHT22;25973;52.368;4.940;2023-03-23T16:36:58;15.70;99.90
40255;DHT22;25973;52.368;4.940;2023-03-23T16:39:23;15.60;99.90
40255;DHT22;25973;52.368;4.940;2023-03-23T16:41:49;15.60;99.90
40255;DHT22;25973;52.368;4.940;2023-03-23T16:44:15;15.60;99.90
40255;DHT22;25973;52.368;4.940;2023-03-23T16:46:40;15.60;99.90
40255;DHT22;25973;52.368;4.940;2023-03-23T16:49:06;15.60;99.90
40255;DHT22;25973;52.368;4.940;2023-03-23T16:51:32;15.60;99.90
40255;DHT22;25973;52.368;4.940;2023-03-23T16:53:57;15.60;99.90
40255;DHT22;25973;52.368;4.940;2023-03-23T16:56:23;15.60;99.90
40255;DHT22;25973;52.368;4.940;2023-03-23T16:58:49;15.60;99.90
40255;DHT22;25973;52.368;4.940;2023-03-23T17:01:14;15.60;99.90
40255;DHT22;25973;52.368;4.940;2023-03-23T17:03:40;15.60;99.90
40255;DHT22;25973;52.368;4.940;2023-03-23T17:06:07;15.60;99.90
40255;DHT22;25973;52.368;4.940;2023-03-23T17:08:33;15.60;99.90
40255;DHT22;25973;52.368;4.940;2023-03-23T17:10:58;15.50;99.90
40255;DHT22;25973;52.368;4.940;2023-03-23T17:13:24;15.50;99.90
40255;DHT22;25973;52.368;4.940;2023-03-23T17:15:53;15.50;99.90
40255;DHT22;25973;52.368;4.940;2023-03-23T17:18:21;15.50;99.90
40255;DHT22;25973;52.368;4.940;2023-03-23T17:20:47;15.50;99.90
40255;DHT22;25973;52.368;4.940;2023-03-23T17:23:13;15.50;99.90